createdAt,value
2023-03-06T00:01:02.547Z,4.20
2023-03-06T00:03:31.048Z,3.08
2023-03-06T00:06:00.153Z,9.27
2023-03-06T00:08:29.182Z,9.07
2023-03-06T00:10:58.204Z,11.90
2023-03-06T00:13:30.059Z,8.57
2023-03-06T00:16:03.058Z,18.50
2023-03-06T00:18:31.227Z,9.23
2023-03-06T00:20:59.897Z,12.32
2023-03-06T00:23:28.197Z,13.10
2023-03-06T00:25:56.351Z,16.37
2023-03-06T00:28:25.248Z,7.40
2023-03-06T00:30:53.524Z,4.87
2023-03-06T00:33:21.696Z,9.80
2023-03-06T00:35:50.090Z,4.22
2023-03-06T00:38:18.395Z,1.25
2023-03-06T00:40:46.768Z,2.65
2023-03-06T00:43:15.191Z,3.80
2023-03-06T00:45:43.529Z,3.25
2023-03-06T00:48:11.730Z,1.30
2023-03-06T00:50:40.169Z,2.00
2023-03-06T00:53:08.435Z,2.22
2023-03-06T00:55:36.768Z,7.20
2023-03-06T00:58:05.206Z,3.37
2023-03-06T01:00:33.570Z,2.67
2023-03-06T01:03:01.899Z,4.82
2023-03-06T01:05:33.810Z,0.77
2023-03-06T01:08:04.020Z,1.30
2023-03-06T01:10:33.689Z,0.55
2023-03-06T01:13:01.733Z,4.32
2023-03-06T01:15:30.039Z,1.15
2023-03-06T01:17:59.255Z,1.87
2023-03-06T01:20:27.764Z,1.17
2023-03-06T01:22:56.684Z,1.95
2023-03-06T01:25:26.270Z,1.65
2023-03-06T01:27:54.518Z,0.60
2023-03-06T01:30:22.710Z,1.02
2023-03-06T01:32:51.085Z,0.98
2023-03-06T01:35:19.242Z,1.12
2023-03-06T01:37:47.739Z,0.95
2023-03-06T01:40:16.154Z,2.95
2023-03-06T01:42:46.857Z,2.83
2023-03-06T01:45:15.241Z,0.65
2023-03-06T01:47:44.831Z,1.95
2023-03-06T01:50:13.256Z,2.35
2023-03-06T01:52:53.841Z,1.25
2023-03-06T01:55:31.010Z,2.40
2023-03-06T01:58:03.675Z,3.42
2023-03-06T02:00:32.265Z,1.75
2023-03-06T02:03:10.047Z,1.00
2023-03-06T02:05:40.722Z,1.45
2023-03-06T02:08:13.392Z,4.00
2023-03-06T02:11:10.699Z,2.15
2023-03-06T02:13:40.304Z,2.00
2023-03-06T02:16:10.805Z,3.08
2023-03-06T02:18:42.340Z,1.45
2023-03-06T02:21:20.299Z,6.03
2023-03-06T02:24:07.794Z,2.08
2023-03-06T02:26:37.832Z,2.90
2023-03-06T02:29:08.829Z,3.40
2023-03-06T02:31:37.368Z,5.15
2023-03-06T02:34:27.765Z,1.20
2023-03-06T02:37:02.001Z,3.47
2023-03-06T02:39:34.214Z,1.05
2023-03-06T02:42:02.864Z,1.05
2023-03-06T02:44:34.783Z,1.80
2023-03-06T02:47:03.475Z,3.10
2023-03-06T02:49:31.730Z,1.40
2023-03-06T02:51:59.930Z,2.17
2023-03-06T02:54:28.417Z,1.33
2023-03-06T02:56:56.587Z,2.03
2023-03-06T02:59:25.145Z,3.17
2023-03-06T03:01:56.805Z,1.30
2023-03-06T03:04:25.638Z,0.98
2023-03-06T03:06:54.131Z,2.70
2023-03-06T03:09:22.981Z,1.62
2023-03-06T03:11:51.304Z,1.65
2023-03-06T03:14:20.097Z,1.75
2023-03-06T03:16:48.824Z,1.33
2023-03-06T03:19:17.196Z,1.42
2023-03-06T03:21:46.359Z,5.00
2023-03-06T03:24:14.946Z,8.27
2023-03-06T03:26:43.501Z,6.55
2023-03-06T03:29:12.686Z,7.97
2023-03-06T03:31:41.278Z,4.65
2023-03-06T03:34:09.559Z,4.12
2023-03-06T03:36:38.591Z,9.30
2023-03-06T03:39:07.724Z,6.35
2023-03-06T03:41:36.407Z,7.07
2023-03-06T03:44:05.169Z,7.93
2023-03-06T03:46:34.341Z,3.75
2023-03-06T03:49:03.117Z,2.15
2023-03-06T03:51:33.001Z,3.20
2023-03-06T03:54:01.769Z,1.10
2023-03-06T03:56:30.658Z,4.40
2023-03-06T03:58:59.747Z,6.43
2023-03-06T04:01:28.932Z,5.28
2023-03-06T04:03:58.206Z,2.45
2023-03-06T04:06:26.406Z,5.43
2023-03-06T04:08:55.050Z,8.85
2023-03-06T04:11:24.808Z,2.62
2023-03-06T04:13:53.129Z,1.37
2023-03-06T04:16:21.698Z,1.30
2023-03-06T04:18:51.832Z,1.65
2023-03-06T04:21:21.258Z,3.37
2023-03-06T04:23:49.900Z,0.75
2023-03-06T04:26:18.693Z,1.98
2023-03-06T04:28:47.231Z,1.70
2023-03-06T04:31:15.820Z,1.37
2023-03-06T04:33:45.148Z,2.65
2023-03-06T04:36:35.007Z,1.67
2023-03-06T04:39:04.985Z,4.28
2023-03-06T04:41:33.568Z,2.70
2023-03-06T04:44:02.018Z,3.50
2023-03-06T04:46:30.634Z,17.02
2023-03-06T04:48:58.729Z,12.50
2023-03-06T04:51:27.797Z,5.45
2023-03-06T04:53:56.555Z,2.78
2023-03-06T04:56:24.752Z,1.90
2023-03-06T04:58:53.545Z,1.40
2023-03-06T05:01:22.034Z,2.70
2023-03-06T05:03:50.266Z,1.95
2023-03-06T05:06:18.405Z,1.55
2023-03-06T05:08:47.958Z,5.55
2023-03-06T05:11:16.100Z,13.20
2023-03-06T05:13:44.738Z,5.68
2023-03-06T05:16:13.271Z,4.65
2023-03-06T05:18:41.639Z,2.58
2023-03-06T05:21:09.767Z,1.65
2023-03-06T05:23:39.014Z,0.93
2023-03-06T05:26:15.159Z,1.50
2023-03-06T05:28:43.660Z,3.25
2023-03-06T05:31:11.845Z,7.57
2023-03-06T05:33:40.200Z,16.30
2023-03-06T05:36:10.369Z,29.58
2023-03-06T05:38:38.809Z,23.27
2023-03-06T05:41:07.283Z,9.23
2023-03-06T05:43:35.974Z,12.45
2023-03-06T05:46:05.622Z,13.95
2023-03-06T05:48:35.009Z,13.52
2023-03-06T05:51:05.007Z,6.80
2023-03-06T05:53:33.335Z,6.30
2023-03-06T05:56:04.681Z,4.40
2023-03-06T05:58:34.012Z,3.72
2023-03-06T06:01:12.572Z,9.65
2023-03-06T06:03:41.553Z,2.55
2023-03-06T06:06:12.346Z,1.15
2023-03-06T06:08:41.263Z,1.60
2023-03-06T06:11:11.490Z,2.03
2023-03-06T06:13:40.674Z,1.30
2023-03-06T06:16:17.826Z,5.80
2023-03-06T06:18:46.056Z,3.10
2023-03-06T06:21:15.027Z,8.07
2023-03-06T06:23:43.477Z,3.62
2023-03-06T06:26:14.566Z,14.73
2023-03-06T06:28:43.057Z,3.40
2023-03-06T06:31:13.455Z,2.80
2023-03-06T06:33:42.077Z,6.07
2023-03-06T06:36:19.341Z,5.10
2023-03-06T06:38:48.308Z,2.67
2023-03-06T06:41:39.246Z,2.67
2023-03-06T06:44:08.439Z,4.18
2023-03-06T06:49:26.228Z,2.10
2023-03-06T06:51:54.692Z,1.12
2023-03-06T06:54:22.809Z,2.12
2023-03-06T06:56:51.615Z,2.28
2023-03-06T06:59:20.561Z,7.80
2023-03-06T07:01:48.869Z,5.93
2023-03-06T07:04:18.269Z,5.82
2023-03-06T07:06:46.993Z,10.82
2023-03-06T07:09:15.243Z,6.45
2023-03-06T07:11:43.775Z,2.37
2023-03-06T07:14:12.319Z,3.05
2023-03-06T07:16:40.452Z,6.80
2023-03-06T07:19:09.021Z,4.68
2023-03-06T07:21:37.407Z,10.13
2023-03-06T07:24:05.634Z,6.97
2023-03-06T07:26:34.855Z,4.85
2023-03-06T07:29:04.534Z,6.30
2023-03-06T07:31:33.003Z,10.27
2023-03-06T07:34:05.166Z,7.95
2023-03-06T07:36:34.725Z,7.37
2023-03-06T07:39:02.872Z,8.13
2023-03-06T07:41:31.575Z,3.17
2023-03-06T07:43:59.981Z,2.00
2023-03-06T07:46:28.595Z,1.52
2023-03-06T07:48:58.360Z,2.65
2023-03-06T07:51:26.916Z,5.22
2023-03-06T07:53:55.294Z,5.15
2023-03-06T07:56:23.527Z,1.95
2023-03-06T07:58:52.045Z,5.75
2023-03-06T08:01:23.522Z,1.08
2023-03-06T08:03:52.815Z,2.85
2023-03-06T08:06:26.328Z,3.00
2023-03-06T08:08:56.800Z,12.95
2023-03-06T08:11:28.227Z,10.52
2023-03-06T08:13:58.460Z,3.00
2023-03-06T08:16:29.955Z,5.60
2023-03-06T08:18:58.835Z,4.45
2023-03-06T08:21:28.314Z,1.65
2023-03-06T08:23:56.850Z,2.60
2023-03-06T08:26:34.798Z,2.50
2023-03-06T08:29:03.549Z,2.67
2023-03-06T08:31:37.372Z,4.75
2023-03-06T08:34:09.396Z,6.28
2023-03-06T08:36:38.362Z,3.53
2023-03-06T08:39:07.342Z,3.80
2023-03-06T08:41:36.486Z,1.65
2023-03-06T08:44:05.542Z,4.25
2023-03-06T08:46:34.975Z,3.12
2023-03-06T08:49:04.004Z,2.70
2023-03-06T08:51:32.867Z,3.12
2023-03-06T08:54:01.499Z,7.18
2023-03-06T08:56:34.484Z,3.95
2023-03-06T08:59:05.598Z,3.67
2023-03-06T09:01:36.871Z,3.12
2023-03-06T09:04:08.530Z,3.33
2023-03-06T09:06:39.801Z,2.58
2023-03-06T09:09:08.817Z,7.87
2023-03-06T09:11:37.738Z,3.37
2023-03-06T09:14:06.946Z,1.70
2023-03-06T09:16:35.536Z,4.70
2023-03-06T09:19:03.904Z,5.12
2023-03-06T09:21:32.282Z,1.58
2023-03-06T09:24:00.696Z,5.37
2023-03-06T09:26:43.428Z,4.20
2023-03-06T09:29:16.566Z,3.00
2023-03-06T09:31:45.238Z,2.45
2023-03-06T09:34:14.486Z,5.60
2023-03-06T09:36:56.131Z,8.05
2023-03-06T09:39:27.221Z,1.70
2023-03-06T09:41:58.431Z,3.28
2023-03-06T09:44:30.367Z,3.95
2023-03-06T09:47:17.331Z,3.80
2023-03-06T09:50:21.206Z,1.95
2023-03-06T09:52:55.944Z,2.92
2023-03-06T09:55:31.361Z,2.23
2023-03-06T09:58:23.094Z,5.60
2023-03-06T10:00:57.199Z,4.12
2023-03-06T10:03:54.206Z,1.62
2023-03-06T10:06:34.939Z,3.72
2023-03-06T10:09:26.476Z,3.05
2023-03-06T10:12:23.661Z,4.35
2023-03-06T10:15:18.901Z,3.85
2023-03-06T10:17:47.485Z,3.22
2023-03-06T10:20:18.704Z,4.05
2023-03-06T10:23:25.049Z,2.90
2023-03-06T10:26:08.220Z,3.60
2023-03-06T10:29:04.280Z,4.35
2023-03-06T10:31:34.661Z,8.60
2023-03-06T10:34:20.392Z,6.00
2023-03-06T10:36:50.156Z,2.83
2023-03-06T10:39:22.279Z,3.55
2023-03-06T10:41:51.017Z,3.42
2023-03-06T10:44:20.864Z,3.87
2023-03-06T10:46:51.968Z,4.05
2023-03-06T10:49:56.311Z,17.33
2023-03-06T10:52:31.655Z,2.10
2023-03-06T10:55:23.942Z,6.57
2023-03-06T10:57:52.556Z,2.92
2023-03-06T11:00:25.523Z,5.75
2023-03-06T11:03:11.196Z,4.07
2023-03-06T11:05:40.587Z,5.18
2023-03-06T11:08:21.811Z,7.78
2023-03-06T11:11:00.266Z,3.20
2023-03-06T11:13:32.241Z,4.45
2023-03-06T11:16:04.925Z,3.50
2023-03-06T11:18:39.914Z,10.48
2023-03-06T11:21:33.404Z,7.07
2023-03-06T11:24:18.922Z,3.40
2023-03-06T11:26:59.629Z,5.85
2023-03-06T11:29:43.211Z,5.95
2023-03-06T11:32:22.896Z,3.67
2023-03-06T11:34:59.311Z,3.53
2023-03-06T11:37:47.691Z,4.80
2023-03-06T11:40:20.900Z,3.08
2023-03-06T11:43:20.677Z,2.20
2023-03-06T11:46:00.546Z,7.12
2023-03-06T11:48:35.734Z,3.45
2023-03-06T11:51:18.902Z,5.00
2023-03-06T11:53:50.998Z,3.55
2023-03-06T11:56:31.404Z,5.05
2023-03-06T11:59:23.319Z,4.62
2023-03-06T12:02:06.532Z,15.55
2023-03-06T12:05:07.211Z,10.18
2023-03-06T12:07:51.529Z,5.12
2023-03-06T12:10:36.376Z,5.90
2023-03-06T12:16:24.590Z,18.25
2023-03-06T12:19:05.237Z,5.53
2023-03-06T12:21:53.806Z,7.53
2023-03-06T12:24:30.578Z,6.00
2023-03-06T12:27:36.194Z,2.20
2023-03-06T12:30:22.697Z,4.40
2023-03-06T12:33:16.401Z,4.85
2023-03-06T12:36:02.454Z,4.60
2023-03-06T12:38:37.492Z,8.80
2023-03-06T12:41:10.970Z,4.68
2023-03-06T12:44:01.388Z,8.38
2023-03-06T12:46:30.799Z,10.35
2023-03-06T12:49:08.954Z,11.60
2023-03-06T12:51:40.141Z,5.70
2023-03-06T12:54:12.765Z,3.75
2023-03-06T12:56:42.516Z,8.20
2023-03-06T12:59:37.322Z,8.27
2023-03-06T13:02:33.535Z,4.25
2023-03-06T13:05:23.280Z,2.87
2023-03-06T13:08:22.187Z,4.18
2023-03-06T13:11:16.218Z,5.68
2023-03-06T13:13:49.325Z,3.00
2023-03-06T13:16:34.531Z,6.70
2023-03-06T13:19:19.356Z,8.25
2023-03-06T13:21:54.187Z,3.58
2023-03-06T13:24:26.095Z,7.22
2023-03-06T13:27:34.582Z,2.78
2023-03-06T13:30:34.893Z,3.70
2023-03-06T13:33:37.190Z,6.18
2023-03-06T13:36:34.106Z,5.87
2023-03-06T13:39:08.697Z,3.97
2023-03-06T13:42:01.110Z,1.90
2023-03-06T13:44:30.797Z,3.95
2023-03-06T13:47:06.475Z,2.83
2023-03-06T13:49:35.780Z,5.18
2023-03-06T13:52:10.347Z,5.68
2023-03-06T13:55:13.335Z,9.70
2023-03-06T13:58:24.751Z,11.35
2023-03-06T14:01:46.032Z,6.55
2023-03-06T14:04:30.882Z,9.10
2023-03-06T14:06:59.077Z,10.13
2023-03-06T14:09:34.416Z,9.50
2023-03-06T14:12:08.281Z,10.13
2023-03-06T14:14:44.119Z,8.87
2023-03-06T14:17:23.135Z,9.20
2023-03-06T14:19:52.195Z,11.90
2023-03-06T14:22:24.900Z,9.52
2023-03-06T14:25:01.466Z,13.10
2023-03-06T14:27:42.397Z,20.60
2023-03-06T14:30:15.280Z,13.05
2023-03-06T14:32:44.217Z,9.80
2023-03-06T14:35:29.915Z,5.68
2023-03-06T14:40:42.825Z,4.68
2023-03-06T14:43:23.231Z,7.68
2023-03-06T14:45:52.962Z,6.35
2023-03-06T14:48:21.943Z,5.25
2023-03-06T14:50:55.564Z,4.72
2023-03-06T14:53:28.136Z,5.32
2023-03-06T14:56:01.523Z,7.05
2023-03-06T14:58:39.288Z,8.33
2023-03-06T15:01:11.576Z,10.13
2023-03-06T15:03:48.453Z,7.45
2023-03-06T15:06:23.248Z,4.68
2023-03-06T15:09:06.484Z,3.90
2023-03-06T15:12:02.337Z,6.00
2023-03-06T15:14:56.177Z,2.95
2023-03-06T15:17:28.648Z,4.78
2023-03-06T15:19:59.534Z,5.10
2023-03-06T15:22:30.691Z,7.68
2023-03-06T15:25:30.033Z,13.02
2023-03-06T15:28:01.691Z,8.80
2023-03-06T15:30:33.816Z,12.70
2023-03-06T15:33:25.731Z,7.70
2023-03-06T15:36:01.947Z,7.43
2023-03-06T15:38:40.088Z,13.00
2023-03-06T15:41:22.473Z,10.32
2023-03-06T15:43:51.358Z,8.02
2023-03-06T15:46:19.933Z,9.07
2023-03-06T15:49:14.300Z,14.93
2023-03-06T15:51:43.051Z,9.05
2023-03-06T15:54:12.571Z,11.93
2023-03-06T15:56:43.657Z,11.15
2023-03-06T15:59:25.579Z,11.30
2023-03-06T16:01:54.499Z,6.90
2023-03-06T16:04:22.981Z,14.35
2023-03-06T16:06:51.302Z,5.12
2023-03-06T16:09:19.447Z,6.82
2023-03-06T16:11:48.461Z,6.12
2023-03-06T16:14:23.877Z,7.43
2023-03-06T16:16:55.235Z,7.55
2023-03-06T16:19:27.362Z,5.25
2023-03-06T16:21:57.035Z,6.25
2023-03-06T16:24:26.401Z,11.55
2023-03-06T16:26:55.782Z,2.83
2023-03-06T16:29:26.153Z,4.53
2023-03-06T16:31:56.638Z,8.75
2023-03-06T16:34:25.499Z,6.97
2023-03-06T16:36:53.647Z,6.50
2023-03-06T16:39:24.300Z,6.87
2023-03-06T16:41:53.051Z,9.27
2023-03-06T16:44:22.004Z,10.80
2023-03-06T16:46:50.965Z,8.00
2023-03-06T16:49:24.186Z,10.60
2023-03-06T16:51:54.003Z,5.70
2023-03-06T16:54:26.110Z,7.97
2023-03-06T16:56:54.149Z,5.62
2023-03-06T16:59:23.901Z,5.70
2023-03-06T17:01:52.517Z,5.12
2023-03-06T17:04:20.972Z,8.73
2023-03-06T17:06:49.880Z,5.00
2023-03-06T17:09:18.088Z,6.72
2023-03-06T17:11:46.905Z,9.38
2023-03-06T17:14:15.625Z,13.43
2023-03-06T17:16:43.932Z,9.50
2023-03-06T17:19:17.209Z,9.38
2023-03-06T17:21:45.976Z,6.50
2023-03-06T17:24:14.355Z,9.32
2023-03-06T17:26:43.677Z,12.20
2023-03-06T17:29:12.332Z,7.82
2023-03-06T17:31:40.856Z,14.82
2023-03-06T17:34:09.172Z,11.23
2023-03-06T17:36:39.162Z,8.57
2023-03-06T17:39:08.217Z,5.53
2023-03-06T17:41:37.714Z,11.45
2023-03-06T17:44:08.039Z,9.75
2023-03-06T17:46:39.119Z,8.93
2023-03-06T17:49:08.780Z,9.07
2023-03-06T17:51:38.469Z,11.32
2023-03-06T17:54:06.650Z,6.80
2023-03-06T17:56:35.508Z,5.97
2023-03-06T17:59:04.482Z,5.45
2023-03-06T18:01:33.245Z,14.55
2023-03-06T18:04:03.839Z,13.07
2023-03-06T18:06:33.605Z,12.10
2023-03-06T18:09:05.176Z,10.23
2023-03-06T18:11:34.249Z,11.27
2023-03-06T18:14:05.549Z,19.10
2023-03-06T18:16:34.087Z,15.85
2023-03-06T18:19:03.450Z,15.52
2023-03-06T18:21:32.040Z,9.20
2023-03-06T18:24:01.982Z,11.23
2023-03-06T18:26:30.894Z,14.50
2023-03-06T18:29:03.802Z,18.75
2023-03-06T18:31:35.118Z,17.00
2023-03-06T18:34:07.977Z,15.38
2023-03-06T18:36:37.486Z,15.25
2023-03-06T18:39:08.955Z,12.75
2023-03-06T18:41:37.988Z,19.08
2023-03-06T18:44:06.329Z,11.75
2023-03-06T18:46:37.994Z,17.10
2023-03-06T18:49:07.412Z,15.25
2023-03-06T18:51:36.074Z,22.77
2023-03-06T18:54:05.654Z,17.33
2023-03-06T18:56:34.810Z,13.65
2023-03-06T18:59:04.675Z,16.45
2023-03-06T19:01:33.762Z,17.58
2023-03-06T19:04:04.380Z,10.05
2023-03-06T19:06:32.536Z,13.90
2023-03-06T19:09:02.405Z,12.48
2023-03-06T19:11:32.350Z,10.02
2023-03-06T19:14:01.241Z,12.32
2023-03-06T19:16:31.296Z,9.75
2023-03-06T19:19:01.019Z,9.45
2023-03-06T19:21:30.094Z,11.73
2023-03-06T19:23:59.272Z,7.37
2023-03-06T19:26:28.295Z,11.70
2023-03-06T19:28:56.635Z,7.65
2023-03-06T19:31:27.406Z,12.63
2023-03-06T19:33:57.036Z,13.07
2023-03-06T19:36:28.951Z,6.57
2023-03-06T19:38:59.298Z,8.10
2023-03-06T19:41:28.745Z,14.75
2023-03-06T19:43:59.544Z,9.38
2023-03-06T19:46:28.472Z,6.53
2023-03-06T19:49:00.568Z,6.62
2023-03-06T19:51:30.027Z,6.60
2023-03-06T19:53:58.163Z,9.48
2023-03-06T19:56:29.275Z,16.70
2023-03-06T19:58:58.733Z,8.73
2023-03-06T20:01:28.425Z,9.70
2023-03-06T20:03:59.870Z,10.95
2023-03-06T20:06:33.547Z,8.07
2023-03-06T20:09:06.206Z,9.90
2023-03-06T20:11:35.174Z,6.85
2023-03-06T20:14:06.132Z,9.43
2023-03-06T20:16:35.091Z,9.50
2023-03-06T20:19:05.041Z,5.97
2023-03-06T20:21:37.756Z,6.43
2023-03-06T20:24:08.211Z,5.80
2023-03-06T20:26:38.713Z,6.97
2023-03-06T20:29:07.641Z,5.60
2023-03-06T20:31:36.826Z,7.53
2023-03-06T20:34:05.440Z,5.72
2023-03-06T20:36:37.221Z,5.53
2023-03-06T20:39:10.100Z,9.57
2023-03-06T20:41:39.713Z,5.15
2023-03-06T20:44:13.406Z,9.75
2023-03-06T20:46:43.053Z,9.35
2023-03-06T20:49:13.451Z,8.93
2023-03-06T20:51:43.013Z,8.13
2023-03-06T20:54:14.340Z,10.02
2023-03-06T20:56:46.731Z,6.85
2023-03-06T20:59:15.038Z,5.72
2023-03-06T21:01:45.909Z,7.85
2023-03-06T21:04:15.788Z,4.97
2023-03-06T21:06:47.003Z,8.82
2023-03-06T21:09:16.810Z,5.93
2023-03-06T21:11:46.192Z,9.23
2023-03-06T21:14:15.648Z,9.00
2023-03-06T21:16:43.935Z,5.60
2023-03-06T21:19:12.763Z,9.57
2023-03-06T21:21:41.342Z,8.10
2023-03-06T21:24:09.664Z,11.98
2023-03-06T21:26:39.424Z,8.05
2023-03-06T21:29:08.361Z,9.57
2023-03-06T21:31:36.679Z,11.88
2023-03-06T21:34:06.281Z,6.25
2023-03-06T21:36:34.790Z,8.60
2023-03-06T21:39:06.222Z,6.70
2023-03-06T21:41:34.991Z,9.00
2023-03-06T21:44:05.285Z,7.22
2023-03-06T21:46:34.154Z,9.80
2023-03-06T21:49:04.552Z,15.27
2023-03-06T21:51:33.622Z,16.42
2023-03-06T21:54:03.074Z,7.25
2023-03-06T21:56:33.426Z,10.02
2023-03-06T21:59:02.186Z,10.27
2023-03-06T22:01:31.144Z,13.80
2023-03-06T22:04:00.116Z,13.43
2023-03-06T22:06:30.408Z,7.43
2023-03-06T22:09:00.111Z,7.22
2023-03-06T22:11:31.379Z,7.75
2023-03-06T22:13:59.895Z,9.45
2023-03-06T22:16:28.916Z,10.88
2023-03-06T22:18:57.170Z,11.88
2023-03-06T22:21:25.306Z,4.90
2023-03-06T22:23:58.716Z,12.27
2023-03-06T22:26:28.738Z,11.93
2023-03-06T22:28:57.474Z,6.80
2023-03-06T22:31:28.496Z,8.93
2023-03-06T22:33:59.812Z,6.95
2023-03-06T22:36:33.190Z,11.27
2023-03-06T22:39:02.832Z,8.50
2023-03-06T22:41:35.672Z,7.90
2023-03-06T22:44:04.292Z,14.52
2023-03-06T22:46:33.077Z,12.25
2023-03-06T22:49:02.404Z,9.30
2023-03-06T22:51:31.009Z,8.38
2023-03-06T22:53:59.315Z,16.52
2023-03-06T22:56:27.450Z,10.52
2023-03-06T22:58:57.681Z,11.25
2023-03-06T23:01:29.202Z,12.90
2023-03-06T23:04:03.092Z,15.57
2023-03-06T23:06:34.414Z,12.95
2023-03-06T23:09:06.808Z,14.85
2023-03-06T23:11:53.600Z,9.02
2023-03-06T23:14:40.343Z,7.62
2023-03-06T23:17:27.731Z,4.85
2023-03-06T23:20:14.656Z,7.28
2023-03-06T23:23:01.256Z,10.63
2023-03-06T23:25:44.624Z,15.70
2023-03-06T23:28:13.765Z,10.35
2023-03-06T23:30:42.481Z,8.68
2023-03-06T23:33:11.120Z,9.73
2023-03-06T23:35:39.683Z,12.02
2023-03-06T23:38:07.905Z,15.50
2023-03-06T23:40:37.998Z,11.52
2023-03-06T23:43:06.626Z,15.77
2023-03-06T23:45:34.792Z,12.18
2023-03-06T23:48:05.154Z,15.77
2023-03-06T23:50:33.643Z,8.93
2023-03-06T23:53:01.983Z,10.88
2023-03-06T23:55:31.443Z,13.30
2023-03-06T23:58:00.022Z,9.82
